createdAt,value
2022-08-28T00:00:38.802Z,17.60
2022-08-28T00:03:06.883Z,17.60
2022-08-28T00:05:36.073Z,17.60
2022-08-28T00:08:05.373Z,17.60
2022-08-28T00:10:37.102Z,17.60
2022-08-28T00:13:04.899Z,17.60
2022-08-28T00:15:35.965Z,17.60
2022-08-28T00:18:05.608Z,17.60
2022-08-28T00:20:34.781Z,17.60
2022-08-28T00:23:03.392Z,17.60
2022-08-28T00:25:34.115Z,17.60
2022-08-28T00:28:07.556Z,17.60
2022-08-28T00:30:40.083Z,17.60
2022-08-28T00:33:10.633Z,17.60
2022-08-28T00:35:40.517Z,17.60
2022-08-28T00:38:09.230Z,17.60
2022-08-28T00:40:40.082Z,17.60
2022-08-28T00:43:09.250Z,17.60
2022-08-28T00:45:40.091Z,17.60
2022-08-28T00:48:08.760Z,17.60
2022-08-28T00:50:51.486Z,17.70
2022-08-28T00:53:20.681Z,17.60
2022-08-28T00:55:52.836Z,17.70
2022-08-28T00:58:21.120Z,17.70
2022-08-28T01:00:48.902Z,17.70
2022-08-28T01:03:16.862Z,17.70
2022-08-28T01:05:47.860Z,17.70
2022-08-28T01:08:16.073Z,17.70
2022-08-28T01:10:51.078Z,17.80
2022-08-28T01:13:20.925Z,17.80
2022-08-28T01:15:50.978Z,17.80
2022-08-28T01:18:19.990Z,17.80
2022-08-28T01:20:54.866Z,17.90
2022-08-28T01:23:35.482Z,17.90
2022-08-28T01:26:05.450Z,17.80
2022-08-28T01:28:34.659Z,17.80
2022-08-28T01:31:02.482Z,17.70
2022-08-28T01:33:30.675Z,17.80
2022-08-28T01:35:59.251Z,17.80
2022-08-28T01:38:27.658Z,17.80
2022-08-28T01:40:57.355Z,17.80
2022-08-28T01:43:28.776Z,17.80
2022-08-28T01:46:00.074Z,17.80
2022-08-28T01:48:28.138Z,17.80
2022-08-28T01:50:56.101Z,17.80
2022-08-28T01:53:30.759Z,17.80
2022-08-28T01:56:02.490Z,17.80
2022-08-28T01:58:38.051Z,17.80
2022-08-28T02:01:10.434Z,17.90
2022-08-28T02:03:38.562Z,17.90
2022-08-28T02:06:06.782Z,17.80
2022-08-28T02:08:34.599Z,17.80
2022-08-28T02:11:03.105Z,17.90
2022-08-28T02:13:30.925Z,17.80
2022-08-28T02:16:00.748Z,17.80
2022-08-28T02:18:28.702Z,17.80
2022-08-28T02:20:56.592Z,17.80
2022-08-28T02:23:24.442Z,17.80
2022-08-28T02:25:52.522Z,17.80
2022-08-28T02:28:20.358Z,17.80
2022-08-28T02:30:48.484Z,17.80
2022-08-28T02:33:17.724Z,17.80
2022-08-28T02:35:45.529Z,17.80
2022-08-28T02:38:14.074Z,17.70
2022-08-28T02:40:42.250Z,17.70
2022-08-28T02:43:10.130Z,17.70
2022-08-28T02:45:38.383Z,17.80
2022-08-28T02:48:08.510Z,17.80
2022-08-28T02:50:46.095Z,17.80
2022-08-28T02:53:14.703Z,17.80
2022-08-28T02:55:42.566Z,17.80
2022-08-28T02:58:10.403Z,17.80
2022-08-28T03:00:38.396Z,17.80
2022-08-28T03:03:06.252Z,17.80
2022-08-28T03:05:34.108Z,17.80
2022-08-28T03:08:03.570Z,17.80
2022-08-28T03:10:31.379Z,17.70
2022-08-28T03:12:59.178Z,17.70
2022-08-28T03:15:27.745Z,17.70
2022-08-28T03:17:55.976Z,17.70
2022-08-28T03:20:23.986Z,17.70
2022-08-28T03:23:09.210Z,17.80
2022-08-28T03:25:40.265Z,17.80
2022-08-28T03:28:08.099Z,17.80
2022-08-28T03:30:36.028Z,17.80
2022-08-28T03:33:03.862Z,17.80
2022-08-28T03:35:31.701Z,17.80
2022-08-28T03:37:59.898Z,17.80
2022-08-28T03:40:27.788Z,17.80
2022-08-28T03:42:57.211Z,17.80
2022-08-28T03:45:25.701Z,17.70
2022-08-28T03:47:54.446Z,17.80
2022-08-28T03:50:22.457Z,17.70
2022-08-28T03:52:52.042Z,17.70
2022-08-28T03:55:20.099Z,17.80
2022-08-28T03:57:47.918Z,17.80
2022-08-28T04:00:17.539Z,17.70
2022-08-28T04:02:46.073Z,17.80
2022-08-28T04:05:15.698Z,17.80
2022-08-28T04:07:43.498Z,17.80
2022-08-28T04:10:12.053Z,17.80
2022-08-28T04:12:39.993Z,17.80
2022-08-28T04:15:09.262Z,17.80
2022-08-28T04:17:40.995Z,17.90
2022-08-28T04:20:11.410Z,17.90
2022-08-28T04:22:39.666Z,17.90
2022-08-28T04:25:08.843Z,17.90
2022-08-28T04:27:36.892Z,17.90
2022-08-28T04:30:05.808Z,17.80
2022-08-28T04:32:35.180Z,17.80
2022-08-28T04:35:06.255Z,17.80
2022-08-28T04:37:34.395Z,17.90
2022-08-28T04:40:02.299Z,17.80
2022-08-28T04:42:30.206Z,17.80
2022-08-28T04:44:59.867Z,17.80
2022-08-28T04:47:28.855Z,17.80
2022-08-28T04:49:56.847Z,17.80
2022-08-28T04:52:26.232Z,17.80
2022-08-28T04:54:54.033Z,17.80
2022-08-28T04:57:21.881Z,17.90
2022-08-28T04:59:49.730Z,17.90
2022-08-28T05:02:17.541Z,17.90
2022-08-28T05:04:45.419Z,17.80
2022-08-28T05:07:13.459Z,17.80
2022-08-28T05:09:42.626Z,17.80
2022-08-28T05:12:15.884Z,17.80
2022-08-28T05:14:44.174Z,17.80
2022-08-28T05:17:13.797Z,17.80
2022-08-28T05:19:43.606Z,17.80
2022-08-28T05:22:11.817Z,17.90
2022-08-28T05:24:40.374Z,17.90
2022-08-28T05:27:10.042Z,17.90
2022-08-28T05:29:37.930Z,17.90
2022-08-28T05:32:06.081Z,17.90
2022-08-28T05:34:34.250Z,17.90
2022-08-28T05:37:02.116Z,17.90
2022-08-28T05:39:30.007Z,17.90
2022-08-28T05:41:57.839Z,17.90
2022-08-28T05:44:26.990Z,17.90
2022-08-28T05:46:55.831Z,17.90
2022-08-28T05:49:23.749Z,17.90
2022-08-28T05:51:52.301Z,17.90
2022-08-28T05:54:20.102Z,18.00
2022-08-28T05:56:48.328Z,18.00
2022-08-28T05:59:16.926Z,18.00
2022-08-28T06:01:48.026Z,17.90
2022-08-28T06:04:19.002Z,18.00
2022-08-28T06:06:49.317Z,18.00
2022-08-28T06:09:20.186Z,18.00
2022-08-28T06:11:49.586Z,18.10
2022-08-28T06:14:20.595Z,18.00
2022-08-28T06:16:52.277Z,18.10
2022-08-28T06:19:22.650Z,18.10
2022-08-28T06:21:52.482Z,18.10
2022-08-28T06:24:20.643Z,18.10
2022-08-28T06:26:48.486Z,18.00
2022-08-28T06:29:21.107Z,18.10
2022-08-28T06:31:54.935Z,18.10
2022-08-28T06:34:22.859Z,18.20
2022-08-28T06:36:53.981Z,18.20
2022-08-28T06:39:23.542Z,18.20
2022-08-28T06:41:51.406Z,18.20
2022-08-28T06:44:21.645Z,18.30
2022-08-28T06:46:52.498Z,18.30
2022-08-28T06:49:20.455Z,18.40
2022-08-28T06:51:48.488Z,18.40
2022-08-28T06:54:22.168Z,18.50
2022-08-28T06:56:51.198Z,18.40
2022-08-28T06:59:19.413Z,18.40
2022-08-28T07:01:47.353Z,18.30
2022-08-28T07:04:16.626Z,18.30
2022-08-28T07:06:47.017Z,18.40
2022-08-28T07:09:15.458Z,18.40
2022-08-28T07:11:47.242Z,18.40
2022-08-28T07:14:15.433Z,18.40
2022-08-28T07:16:44.442Z,18.40
2022-08-28T07:19:13.723Z,18.40
2022-08-28T07:21:45.085Z,18.40
2022-08-28T07:24:14.766Z,18.40
2022-08-28T07:26:43.629Z,18.40
2022-08-28T07:29:11.924Z,18.40
2022-08-28T07:31:42.380Z,18.40
2022-08-28T07:34:11.513Z,18.40
2022-08-28T07:36:39.432Z,18.50
2022-08-28T07:39:10.785Z,18.40
2022-08-28T07:41:42.269Z,18.40
2022-08-28T07:44:29.997Z,18.20
2022-08-28T07:47:00.474Z,18.00
2022-08-28T07:49:28.292Z,18.00
2022-08-28T07:51:56.152Z,18.10
2022-08-28T07:54:25.387Z,18.00
2022-08-28T07:56:53.626Z,17.90
2022-08-28T07:59:22.124Z,17.70
2022-08-28T08:01:51.779Z,17.70
2022-08-28T08:04:21.367Z,17.70
2022-08-28T08:06:54.484Z,17.60
2022-08-28T08:09:28.650Z,17.60
2022-08-28T08:11:57.227Z,17.70
2022-08-28T08:14:25.579Z,17.80
2022-08-28T08:16:53.537Z,17.90
2022-08-28T08:19:21.519Z,17.90
2022-08-28T08:21:53.311Z,17.80
2022-08-28T08:24:25.843Z,17.90
2022-08-28T08:27:00.241Z,17.90
2022-08-28T08:29:31.228Z,17.90
2022-08-28T08:32:04.868Z,17.90
2022-08-28T08:34:33.479Z,18.00
2022-08-28T08:37:01.528Z,18.10
2022-08-28T08:39:29.419Z,18.10
2022-08-28T08:42:04.334Z,18.10
2022-08-28T08:44:35.553Z,18.00
2022-08-28T08:47:14.120Z,18.10
2022-08-28T08:49:59.330Z,18.10
2022-08-28T08:52:33.390Z,18.10
2022-08-28T08:55:11.242Z,18.10
2022-08-28T08:57:46.341Z,18.20
2022-08-28T09:00:18.140Z,18.10
2022-08-28T09:02:51.501Z,18.20
2022-08-28T09:05:24.715Z,18.20
2022-08-28T09:07:57.542Z,18.20
2022-08-28T09:10:32.029Z,18.20
2022-08-28T09:13:11.998Z,18.40
2022-08-28T09:15:48.700Z,18.40
2022-08-28T09:18:22.665Z,18.40
2022-08-28T09:20:51.616Z,18.50
2022-08-28T09:23:19.474Z,18.50
2022-08-28T09:25:51.561Z,18.50
2022-08-28T09:28:23.704Z,18.50
2022-08-28T09:31:03.254Z,18.60
2022-08-28T09:33:38.781Z,18.60
2022-08-28T09:36:30.323Z,18.60
2022-08-28T09:39:12.058Z,18.70
2022-08-28T09:42:07.797Z,18.70
2022-08-28T09:44:52.309Z,18.70
2022-08-28T09:47:46.914Z,18.60
2022-08-28T09:50:22.373Z,18.60
2022-08-28T09:52:50.747Z,18.60
2022-08-28T09:55:24.422Z,18.60
2022-08-28T09:57:54.344Z,18.60
2022-08-28T10:00:23.850Z,18.70
2022-08-28T10:03:01.062Z,18.60
2022-08-28T10:05:39.390Z,18.70
2022-08-28T10:08:20.275Z,18.60
2022-08-28T10:10:54.400Z,18.60
2022-08-28T10:13:29.844Z,18.60
2022-08-28T10:16:11.878Z,18.60
2022-08-28T10:18:47.116Z,18.60
2022-08-28T10:21:21.567Z,18.60
2022-08-28T10:24:13.827Z,18.70
2022-08-28T10:26:50.762Z,18.70
2022-08-28T10:29:30.506Z,18.70
2022-08-28T10:32:14.989Z,18.70
2022-08-28T10:34:56.292Z,18.70
2022-08-28T10:37:31.657Z,18.80
2022-08-28T10:40:04.552Z,18.90
2022-08-28T10:42:36.564Z,19.00
2022-08-28T10:45:09.407Z,19.00
2022-08-28T10:47:42.818Z,19.00
2022-08-28T10:50:16.669Z,19.10
2022-08-28T10:52:49.558Z,19.20
2022-08-28T10:55:23.075Z,19.30
2022-08-28T10:57:56.549Z,19.30
2022-08-28T11:00:29.264Z,19.40
2022-08-28T11:03:01.917Z,19.40
2022-08-28T11:05:34.258Z,19.50
2022-08-28T11:08:06.623Z,19.50
2022-08-28T11:10:50.778Z,19.50
2022-08-28T11:13:42.119Z,19.60
2022-08-28T11:16:13.518Z,19.70
2022-08-28T11:19:02.773Z,19.70
2022-08-28T11:21:34.205Z,19.70
2022-08-28T11:24:07.178Z,19.70
2022-08-28T11:26:42.490Z,19.80
2022-08-28T11:29:10.331Z,19.90
2022-08-28T11:31:41.219Z,19.80
2022-08-28T11:34:48.681Z,19.80
2022-08-28T11:37:38.259Z,19.90
2022-08-28T11:40:18.150Z,19.80
2022-08-28T11:42:48.630Z,19.80
2022-08-28T11:45:23.354Z,19.80
2022-08-28T11:47:56.387Z,19.80
2022-08-28T11:50:33.850Z,19.80
2022-08-28T11:53:34.761Z,19.80
2022-08-28T11:56:36.815Z,19.90
2022-08-28T11:59:37.048Z,19.90
2022-08-28T12:02:38.941Z,19.90
2022-08-28T12:05:09.311Z,20.10
2022-08-28T12:07:40.625Z,20.10
2022-08-28T12:10:59.512Z,20.10
2022-08-28T12:13:58.069Z,20.20
2022-08-28T12:16:26.858Z,20.30
2022-08-28T12:19:01.921Z,20.40
2022-08-28T12:21:32.469Z,20.40
2022-08-28T12:24:09.134Z,20.40
2022-08-28T12:26:45.543Z,20.50
2022-08-28T12:29:27.944Z,20.60
2022-08-28T12:32:14.784Z,20.70
2022-08-28T12:34:50.951Z,20.80
2022-08-28T12:37:39.890Z,20.90
2022-08-28T12:40:22.397Z,20.90
2022-08-28T12:42:56.031Z,20.80
2022-08-28T12:45:28.007Z,20.80
2022-08-28T12:47:59.949Z,20.80
2022-08-28T12:50:32.113Z,20.80
2022-08-28T12:53:01.466Z,20.60
2022-08-28T12:55:29.459Z,20.70
2022-08-28T12:57:58.749Z,20.70
2022-08-28T13:00:32.789Z,20.60
2022-08-28T13:03:01.980Z,20.40
2022-08-28T13:05:33.917Z,20.40
2022-08-28T13:08:05.663Z,20.30
2022-08-28T13:10:37.462Z,20.30
2022-08-28T13:13:10.776Z,20.20
2022-08-28T13:15:55.851Z,20.30
2022-08-28T13:18:52.611Z,20.30
2022-08-28T13:21:35.037Z,20.30
2022-08-28T13:24:28.386Z,20.40
2022-08-28T13:27:05.929Z,20.40
2022-08-28T13:29:36.474Z,20.30
2022-08-28T13:32:06.738Z,20.30
2022-08-28T13:34:37.131Z,20.30
2022-08-28T13:37:18.531Z,20.40
2022-08-28T13:39:48.687Z,20.40
2022-08-28T13:42:18.268Z,20.30
2022-08-28T13:44:50.548Z,20.40
2022-08-28T13:47:18.601Z,20.60
2022-08-28T13:49:47.006Z,20.70
2022-08-28T13:52:15.254Z,20.90
2022-08-28T13:54:43.634Z,21.10
2022-08-28T13:57:14.842Z,21.20
2022-08-28T13:59:43.024Z,21.10
2022-08-28T14:02:33.332Z,21.20
2022-08-28T14:05:01.949Z,21.30
2022-08-28T14:07:30.324Z,21.30
2022-08-28T14:09:58.561Z,21.20
2022-08-28T14:12:32.627Z,21.20
2022-08-28T14:15:01.620Z,21.20
2022-08-28T14:17:30.978Z,21.20
2022-08-28T14:20:00.196Z,21.30
2022-08-28T14:22:28.409Z,21.20
2022-08-28T14:24:56.224Z,21.30
2022-08-28T14:27:24.052Z,21.30
2022-08-28T14:29:53.199Z,21.40
2022-08-28T14:32:21.274Z,21.40
2022-08-28T14:34:50.694Z,21.40
2022-08-28T14:37:19.239Z,21.50
2022-08-28T14:39:47.871Z,21.40
2022-08-28T14:42:15.706Z,21.30
2022-08-28T14:44:43.750Z,21.30
2022-08-28T14:47:11.614Z,21.10
2022-08-28T14:49:39.668Z,21.10
2022-08-28T14:52:08.983Z,21.00
2022-08-28T14:54:37.151Z,21.10
2022-08-28T14:57:05.131Z,21.10
2022-08-28T14:59:33.929Z,21.20
2022-08-28T15:02:02.803Z,21.30
2022-08-28T15:04:34.605Z,21.50
2022-08-28T15:07:07.930Z,21.70
2022-08-28T15:09:40.394Z,21.70
2022-08-28T15:12:08.663Z,21.70
2022-08-28T15:14:36.773Z,21.80
2022-08-28T15:17:05.003Z,22.10
2022-08-28T15:19:35.537Z,22.20
2022-08-28T15:22:04.182Z,22.20
2022-08-28T15:24:34.321Z,22.20
2022-08-28T15:27:03.972Z,22.20
2022-08-28T15:29:31.846Z,22.20
2022-08-28T15:32:00.516Z,22.10
2022-08-28T15:34:29.235Z,22.10
2022-08-28T15:36:58.270Z,22.20
2022-08-28T15:39:45.651Z,22.20
2022-08-28T15:42:15.565Z,22.20
2022-08-28T15:44:43.878Z,22.30
2022-08-28T15:47:12.579Z,22.10
2022-08-28T15:49:46.747Z,21.90
2022-08-28T15:52:18.661Z,21.80
2022-08-28T15:54:46.539Z,21.70
2022-08-28T15:57:16.134Z,21.80
2022-08-28T15:59:48.551Z,21.70
2022-08-28T16:02:18.849Z,21.50
2022-08-28T16:04:46.838Z,21.50
2022-08-28T16:07:14.662Z,21.30
2022-08-28T16:09:42.585Z,21.30
2022-08-28T16:12:10.461Z,21.20
2022-08-28T16:14:39.650Z,21.10
2022-08-28T16:17:11.289Z,21.10
2022-08-28T16:19:39.606Z,21.00
2022-08-28T16:22:07.442Z,20.90
2022-08-28T16:24:35.379Z,20.90
2022-08-28T16:27:03.225Z,20.90
2022-08-28T16:29:31.131Z,20.70
2022-08-28T16:32:00.759Z,20.70
2022-08-28T16:34:31.464Z,20.50
2022-08-28T16:36:59.721Z,20.50
2022-08-28T16:39:27.964Z,20.50
2022-08-28T16:41:56.131Z,20.40
2022-08-28T16:44:26.041Z,20.40
2022-08-28T16:46:54.596Z,20.40
2022-08-28T16:49:25.000Z,20.40
2022-08-28T16:51:52.953Z,20.40
2022-08-28T16:54:21.448Z,20.20
2022-08-28T16:56:49.601Z,20.20
2022-08-28T16:59:20.428Z,20.10
2022-08-28T17:01:52.989Z,20.10
2022-08-28T17:04:23.158Z,20.10
2022-08-28T17:06:51.259Z,20.00
2022-08-28T17:09:20.835Z,20.00
2022-08-28T17:11:52.138Z,20.00
2022-08-28T17:14:20.633Z,20.00
2022-08-28T17:16:48.642Z,19.90
2022-08-28T17:19:16.709Z,19.90
2022-08-28T17:22:04.011Z,19.80
2022-08-28T17:24:31.925Z,19.70
2022-08-28T17:27:05.133Z,19.70
2022-08-28T17:29:34.007Z,19.60
2022-08-28T17:32:02.141Z,19.60
2022-08-28T17:34:30.641Z,19.50
2022-08-28T17:37:00.506Z,19.40
2022-08-28T17:39:28.338Z,19.40
2022-08-28T17:41:56.527Z,19.40
2022-08-28T17:44:24.423Z,19.30
2022-08-28T17:46:52.612Z,19.30
2022-08-28T17:49:20.616Z,19.30
2022-08-28T17:51:48.566Z,19.30
2022-08-28T17:54:21.381Z,19.20
2022-08-28T17:56:49.609Z,19.20
2022-08-28T17:59:18.030Z,19.20
2022-08-28T18:01:46.716Z,19.10
2022-08-28T18:04:20.260Z,19.10
2022-08-28T18:06:54.206Z,19.00
2022-08-28T18:09:24.450Z,19.00
2022-08-28T18:11:52.780Z,18.90
2022-08-28T18:14:21.130Z,18.90
2022-08-28T18:16:48.991Z,18.80
2022-08-28T18:19:17.177Z,18.80
2022-08-28T18:21:45.907Z,18.70
2022-08-28T18:24:14.017Z,18.60
2022-08-28T18:26:44.788Z,18.60
2022-08-28T18:29:13.014Z,18.60
2022-08-28T18:31:41.223Z,18.50
2022-08-28T18:34:09.992Z,18.50
2022-08-28T18:36:39.817Z,18.40
2022-08-28T18:39:08.177Z,18.40
2022-08-28T18:41:43.492Z,18.30
2022-08-28T18:44:15.182Z,18.30
2022-08-28T18:46:43.765Z,18.30
2022-08-28T18:49:12.062Z,18.20
2022-08-28T18:51:41.941Z,18.20
2022-08-28T18:54:10.423Z,18.20
2022-08-28T18:56:40.774Z,18.10
2022-08-28T18:59:12.750Z,18.10
2022-08-28T19:01:42.473Z,18.10
2022-08-28T19:04:10.532Z,18.10
2022-08-28T19:06:38.735Z,18.10
2022-08-28T19:09:06.695Z,18.10
2022-08-28T19:11:36.127Z,18.10
2022-08-28T19:14:06.079Z,18.10
2022-08-28T19:16:35.649Z,18.10
2022-08-28T19:19:07.704Z,18.10
2022-08-28T19:21:36.987Z,18.00
2022-08-28T19:24:05.534Z,18.00
2022-08-28T19:26:33.629Z,18.00
2022-08-28T19:29:03.171Z,18.00
2022-08-28T19:31:33.600Z,18.00
2022-08-28T19:34:02.539Z,18.00
2022-08-28T19:36:31.930Z,18.00
2022-08-28T19:39:00.818Z,17.90
2022-08-28T19:41:29.663Z,17.90
2022-08-28T19:43:57.549Z,17.90
2022-08-28T19:46:25.753Z,17.90
2022-08-28T19:48:54.260Z,17.90
2022-08-28T19:51:24.180Z,17.90
2022-08-28T19:53:58.278Z,17.90
2022-08-28T19:56:27.792Z,17.90
2022-08-28T19:58:58.368Z,17.80
2022-08-28T20:01:29.298Z,17.80
2022-08-28T20:03:57.929Z,17.80
2022-08-28T20:06:25.805Z,17.80
2022-08-28T20:08:55.014Z,17.80
2022-08-28T20:11:29.055Z,17.80
2022-08-28T20:14:03.783Z,17.70
2022-08-28T20:16:34.422Z,17.70
2022-08-28T20:19:03.675Z,17.70
2022-08-28T20:21:37.828Z,17.70
2022-08-28T20:24:08.990Z,17.60
2022-08-28T20:26:37.235Z,17.60
2022-08-28T20:29:06.371Z,17.60
2022-08-28T20:31:34.553Z,17.60
2022-08-28T20:34:02.405Z,17.60
2022-08-28T20:36:31.134Z,17.50
2022-08-28T20:38:59.018Z,17.50
2022-08-28T20:41:29.014Z,17.50
2022-08-28T20:43:57.373Z,17.40
2022-08-28T20:46:25.677Z,17.40
2022-08-28T20:48:55.072Z,17.40
2022-08-28T20:51:42.935Z,17.40
2022-08-28T20:54:12.361Z,17.40
2022-08-28T20:56:41.859Z,17.40
2022-08-28T20:59:10.555Z,17.30
2022-08-28T21:01:38.440Z,17.20
2022-08-28T21:04:07.609Z,17.20
2022-08-28T21:06:35.584Z,17.30
2022-08-28T21:09:03.615Z,17.20
2022-08-28T21:11:31.490Z,17.20
2022-08-28T21:14:01.169Z,17.10
2022-08-28T21:16:29.990Z,17.10
2022-08-28T21:19:15.906Z,17.10
2022-08-28T21:21:46.341Z,17.00
2022-08-28T21:24:16.023Z,17.00
2022-08-28T21:26:47.572Z,17.00
2022-08-28T21:29:19.786Z,17.00
2022-08-28T21:31:50.185Z,17.00
2022-08-28T21:34:19.790Z,17.00
2022-08-28T21:36:50.571Z,17.00
2022-08-28T21:39:20.845Z,16.90
2022-08-28T21:41:49.286Z,16.90
2022-08-28T21:44:18.731Z,16.90
2022-08-28T21:46:46.802Z,16.90
2022-08-28T21:49:14.613Z,16.90
2022-08-28T21:51:42.441Z,16.90
2022-08-28T21:54:10.310Z,16.90
2022-08-28T21:56:38.159Z,16.90
2022-08-28T21:59:06.280Z,16.90
2022-08-28T22:01:35.607Z,16.90
2022-08-28T22:04:04.059Z,16.90
2022-08-28T22:06:31.961Z,16.90
2022-08-28T22:08:59.893Z,16.90
2022-08-28T22:11:28.200Z,16.80
2022-08-28T22:13:56.772Z,16.80
2022-08-28T22:16:25.970Z,16.80
2022-08-28T22:18:55.545Z,16.80
2022-08-28T22:21:44.143Z,16.70
2022-08-28T22:24:13.122Z,16.70
2022-08-28T22:26:41.490Z,16.60
2022-08-28T22:29:09.822Z,16.60
2022-08-28T22:31:38.306Z,16.60
2022-08-28T22:34:15.184Z,16.60
2022-08-28T22:36:43.093Z,16.50
2022-08-28T22:39:10.979Z,16.50
2022-08-28T22:41:38.795Z,16.50
2022-08-28T22:44:07.610Z,16.50
2022-08-28T22:46:35.827Z,16.40
2022-08-28T22:49:03.747Z,16.40
2022-08-28T22:51:35.450Z,16.40
2022-08-28T22:54:03.354Z,16.40
2022-08-28T22:56:31.141Z,16.50
2022-08-28T22:58:59.306Z,16.50
2022-08-28T23:01:27.866Z,16.50
2022-08-28T23:03:55.720Z,16.50
2022-08-28T23:06:23.574Z,16.40
2022-08-28T23:08:52.886Z,16.40
2022-08-28T23:11:20.715Z,16.40
2022-08-28T23:13:48.589Z,16.40
2022-08-28T23:16:23.730Z,16.40
2022-08-28T23:19:08.912Z,16.40
2022-08-28T23:21:40.889Z,16.30
2022-08-28T23:24:13.218Z,16.30
2022-08-28T23:26:41.484Z,16.30
2022-08-28T23:29:09.631Z,16.40
2022-08-28T23:31:37.878Z,16.40
2022-08-28T23:34:06.523Z,16.40
2022-08-28T23:36:35.657Z,16.30
2022-08-28T23:39:04.007Z,16.20
2022-08-28T23:41:33.214Z,16.20
2022-08-28T23:44:05.288Z,16.30
2022-08-28T23:46:36.505Z,16.20
2022-08-28T23:49:04.633Z,16.20
2022-08-28T23:51:32.719Z,16.20
2022-08-28T23:54:00.565Z,16.20
2022-08-28T23:56:28.406Z,16.20
2022-08-28T23:58:57.524Z,16.10
